Time;durP1;ratioP1;P1;durP2;ratioP2;P2;SDS_P1;SDS_P2;PMS_P1;PMS_P2;Temp;Humidity;BMP_temperature;BMP_pressure;BME280_temperature;BME280_humidity;BME280_pressure;Samples;Min_cycle;Max_cycle;Signal;HPM_P1;HPM_P2
2021/11/06 00:01:53;;;;;;;17.88;2.80;;;30.70;51.30;;;;;;5012427;28;20101;-66
2021/11/06 00:04:19;;;;;;;27.45;3.55;;;;;;;;;;5028753;28;20372;-66
2021/11/06 00:06:46;;;;;;;19.67;3.60;;;30.40;53.70;;;;;;5028946;28;20032;-64
2021/11/06 00:09:12;;;;;;;20.08;2.63;;;30.40;28.90;;;;;;5028783;28;20040;-65
2021/11/06 00:11:39;;;;;;;25.60;5.40;;;30.30;52.80;;;;;;5027885;28;20367;-65
2021/11/06 00:14:05;;;;;;;19.95;3.80;;;30.30;50.40;;;;;;5027944;28;20029;-64
2021/11/06 00:16:32;;;;;;;25.90;2.97;;;30.40;43.10;;;;;;5046251;28;20049;-65
2021/11/06 00:18:58;;;;;;;15.52;2.90;;;;;;;;;;5029124;28;20025;-64
2021/11/06 00:21:25;;;;;;;22.75;2.88;;;30.40;52.60;;;;;;5046351;28;20041;-65
2021/11/06 00:23:51;;;;;;;28.08;2.85;;;29.80;46.40;;;;;;5027516;28;20029;-65
2021/11/06 00:26:18;;;;;;;22.75;2.72;;;29.60;55.20;;;;;;5028436;28;20031;-65
2021/11/06 00:28:44;;;;;;;17.20;3.42;;;29.50;54.60;;;;;;5047321;28;20032;-65
2021/11/06 00:31:10;;;;;;;23.30;3.58;;;29.60;36.70;;;;;;5046456;28;20929;-65
2021/11/06 00:33:37;;;;;;;15.48;3.38;;;29.20;64.90;;;;;;5027948;28;20136;-64
2021/11/06 00:36:04;;;;;;;28.48;3.33;;;;;;;;;;5028431;28;20123;-65
2021/11/06 00:38:30;;;;;;;23.30;4.43;;;28.80;62.10;;;;;;5028556;28;20690;-65
2021/11/06 00:40:57;;;;;;;47.22;5.72;;;28.70;54.50;;;;;;5011711;28;20040;-64
2021/11/06 00:43:23;;;;;;;27.95;5.60;;;;;;;;;;5027118;28;20034;-65
2021/11/06 00:45:50;;;;;;;26.20;5.03;;;28.30;52.70;;;;;;5011991;28;20544;-65
2021/11/06 00:48:16;;;;;;;28.70;4.30;;;28.30;63.10;;;;;;5027777;28;20032;-65
2021/11/06 00:50:42;;;;;;;28.80;4.47;;;28.00;63.00;;;;;;5028626;28;20033;-65
2021/11/06 00:53:09;;;;;;;26.50;5.13;;;28.10;35.10;;;;;;5027681;28;20028;-65
2021/11/06 00:55:35;;;;;;;28.95;5.00;;;28.10;36.40;;;;;;5027695;28;20023;-65
2021/11/06 00:58:02;;;;;;;33.35;6.15;;;27.70;34.80;;;;;;5026501;28;20067;-64
2021/11/06 01:00:28;;;;;;;41.10;6.00;;;27.80;36.20;;;;;;5028398;28;20029;-66
2021/11/06 01:02:56;;;;;;;30.80;6.13;;;;;;;;;;5028573;28;20097;-64
2021/11/06 01:05:22;;;;;;;37.20;6.10;;;27.30;68.30;;;;;;5027479;28;20155;-64
2021/11/06 01:07:49;;;;;;;31.70;5.78;;;27.50;37.80;;;;;;5026971;28;20020;-65
2021/11/06 01:10:16;;;;;;;31.92;5.80;;;27.40;33.10;;;;;;5027770;28;20072;-64
2021/11/06 01:12:43;;;;;;;40.78;6.20;;;27.30;33.80;;;;;;5046181;28;20621;-66
2021/11/06 01:15:12;;;;;;;29.60;5.40;;;26.30;40.40;;;;;;5027052;28;20061;-66
2021/11/06 01:17:39;;;;;;;34.15;6.72;;;;;;;;;;5028132;28;20033;-65
2021/11/06 01:20:06;;;;;;;38.03;6.78;;;26.80;68.70;;;;;;5046455;28;20028;-65
2021/11/06 01:22:34;;;;;;;28.80;6.65;;;26.40;75.00;;;;;;5028350;28;20037;-65
2021/11/06 01:25:00;;;;;;;36.83;7.50;;;26.70;41.80;;;;;;5012395;28;20029;-65
2021/11/06 01:27:27;;;;;;;47.28;8.23;;;26.70;43.20;;;;;;5028334;28;20829;-63
2021/11/06 01:29:53;;;;;;;44.20;8.75;;;26.60;36.90;;;;;;5028071;28;20096;-66
2021/11/06 01:32:20;;;;;;;51.97;10.68;;;26.50;36.70;;;;;;5047562;28;20156;-65
2021/11/06 01:34:46;;;;;;;47.55;9.63;;;26.40;36.80;;;;;;5027857;28;20486;-65
2021/11/06 01:37:13;;;;;;;38.97;8.80;;;26.30;37.70;;;;;;5028495;28;20294;-64
2021/11/06 01:39:39;;;;;;;59.13;9.13;;;26.30;37.50;;;;;;5028806;28;20106;-66
2021/11/06 01:42:06;;;;;;;53.88;8.75;;;26.10;50.00;;;;;;5028125;28;20107;-64
2021/11/06 01:44:32;;;;;;;42.38;8.80;;;25.80;45.20;;;;;;5046658;28;20153;-67
2021/11/06 01:46:59;;;;;;;42.45;8.38;;;26.00;44.80;;;;;;5027953;28;20028;-66
2021/11/06 01:49:25;;;;;;;47.95;9.15;;;26.20;77.20;;;;;;5046986;28;20156;-66
2021/11/06 01:51:53;;;;;;;54.35;9.63;;;25.80;45.20;;;;;;5028403;28;20052;-67
2021/11/06 01:54:23;;;;;;;57.85;9.70;;;25.80;52.50;;;;;;5028120;28;20037;-65
2021/11/06 01:56:51;;;;;;;58.97;9.13;;;25.60;48.40;;;;;;5028269;28;20029;-65
2021/11/06 01:59:17;;;;;;;58.22;10.15;;;25.80;54.20;;;;;;5028558;28;20052;-65
2021/11/06 02:01:44;;;;;;;70.93;12.13;;;;;;;;;;5047544;28;20037;-64
2021/11/06 02:04:10;;;;;;;79.53;13.43;;;25.30;54.90;;;;;;5027868;28;21152;-66
2021/11/06 02:06:37;;;;;;;65.50;11.48;;;25.50;40.80;;;;;;5028121;28;20029;-64
2021/11/06 02:09:03;;;;;;;74.07;11.27;;;25.40;40.90;;;;;;5028238;28;20048;-65
2021/11/06 02:11:30;;;;;;;68.80;11.10;;;25.40;55.80;;;;;;5028710;28;20503;-65
2021/11/06 02:13:56;;;;;;;50.22;10.98;;;25.20;41.60;;;;;;5011706;28;20071;-65
2021/11/06 02:16:23;;;;;;;86.88;12.75;;;25.10;56.60;;;;;;5028007;28;20072;-65
2021/11/06 02:18:50;;;;;;;70.13;12.52;;;;;;;;;;5031373;28;20036;-65
2021/11/06 02:21:16;;;;;;;57.33;12.98;;;24.70;52.60;;;;;;5032156;28;20033;-64
2021/11/06 02:23:48;;;;;;;67.18;13.85;;;24.50;88.90;;;;;;5031925;28;20390;-65
2021/11/06 02:26:15;;;;;;;59.22;15.43;;;24.90;51.40;;;;;;5050289;28;20013;-65
2021/11/06 02:28:51;;;;;;;66.45;18.70;;;24.80;42.80;;;;;;5031191;28;20558;-65
2021/11/06 02:31:18;;;;;;;77.43;33.10;;;24.80;42.90;;;;;;5015876;28;20072;-62
2021/11/06 02:33:44;;;;;;;122.97;68.10;;;24.70;42.60;;;;;;5012336;28;20935;-63
2021/11/06 02:36:10;;;;;;;123.70;62.63;;;24.70;42.70;;;;;;5030343;28;20076;-64
2021/11/06 02:38:37;;;;;;;126.05;59.08;;;24.70;43.30;;;;;;5049684;28;20077;-63
2021/11/06 02:41:03;;;;;;;102.50;55.80;;;24.60;44.00;;;;;;5030157;28;20094;-63
2021/11/06 02:43:32;;;;;;;109.57;55.00;;;24.50;43.60;;;;;;5049609;28;20527;-63
2021/11/06 02:45:58;;;;;;;110.15;49.85;;;24.50;43.10;;;;;;5030372;28;20573;-63
2021/11/06 02:48:25;;;;;;;103.90;48.85;;;24.40;43.60;;;;;;5049256;28;20065;-63
2021/11/06 02:50:52;;;;;;;121.38;48.55;;;24.30;43.90;;;;;;5047897;28;20554;-63
2021/11/06 02:53:18;;;;;;;112.68;53.17;;;24.30;44.10;;;;;;5030571;28;20550;-64
2021/11/06 02:55:45;;;;;;;121.00;58.55;;;24.30;44.60;;;;;;5030632;28;20535;-64
2021/11/06 02:58:12;;;;;;;123.35;60.67;;;24.20;44.60;;;;;;5030641;28;20099;-64
2021/11/06 03:00:39;;;;;;;132.35;64.18;;;24.10;44.60;;;;;;5030746;28;20103;-62
2021/11/06 03:03:06;;;;;;;149.15;65.00;;;24.10;44.70;;;;;;5029896;28;20095;-63
2021/11/06 03:05:32;;;;;;;136.52;62.45;;;24.10;45.10;;;;;;5030487;28;20066;-63
2021/11/06 03:07:59;;;;;;;131.43;64.60;;;24.00;45.60;;;;;;5029754;28;20081;-63
2021/11/06 03:10:27;;;;;;;156.77;65.20;;;24.00;46.00;;;;;;5029984;28;20105;-63
2021/11/06 03:12:57;;;;;;;155.10;58.42;;;24.00;46.60;;;;;;5048817;28;20092;-64
2021/11/06 03:15:23;;;;;;;157.02;56.03;;;23.90;46.50;;;;;;5048447;28;20128;-64
2021/11/06 03:17:50;;;;;;;138.57;50.88;;;23.90;46.50;;;;;;5048772;28;20123;-63
2021/11/06 03:20:19;;;;;;;144.20;48.70;;;23.90;46.90;;;;;;5029842;28;20076;-63
2021/11/06 03:22:45;;;;;;;115.28;41.58;;;23.80;46.70;;;;;;5029986;28;20154;-64
2021/11/06 03:25:13;;;;;;;101.70;36.67;;;23.70;46.70;;;;;;5029623;28;20069;-63
2021/11/06 03:27:39;;;;;;;96.90;30.80;;;23.70;46.80;;;;;;5029873;28;20535;-63
2021/11/06 03:30:08;;;;;;;81.32;28.02;;;23.70;47.30;;;;;;5028989;28;20074;-66
2021/11/06 03:32:35;;;;;;;88.20;23.98;;;23.70;47.50;;;;;;5030236;28;20081;-65
2021/11/06 03:35:02;;;;;;;79.03;22.00;;;23.60;48.30;;;;;;5033925;28;20079;-64
2021/11/06 03:37:28;;;;;;;68.18;20.50;;;23.50;47.70;;;;;;5033891;28;20080;-65
2021/11/06 03:39:55;;;;;;;71.45;18.83;;;23.50;47.60;;;;;;5032355;28;20226;-65
2021/11/06 03:42:21;;;;;;;79.35;19.42;;;23.40;48.00;;;;;;5033671;28;20150;-62
2021/11/06 03:44:48;;;;;;;59.13;20.40;;;23.40;47.50;;;;;;5033852;28;20079;-63
2021/11/06 03:47:14;;;;;;;82.53;21.50;;;23.40;48.10;;;;;;5033301;28;20072;-65
2021/11/06 03:49:41;;;;;;;77.85;20.90;;;23.30;48.10;;;;;;5032597;28;20086;-65
2021/11/06 03:52:07;;;;;;;87.88;18.90;;;23.30;48.30;;;;;;5033662;28;20160;-65
2021/11/06 03:54:34;;;;;;;80.65;21.67;;;23.30;49.20;;;;;;5033113;28;20254;-65
2021/11/06 03:57:00;;;;;;;66.05;19.40;;;23.20;49.00;;;;;;5033507;28;20161;-66
2021/11/06 03:59:27;;;;;;;79.65;20.70;;;23.20;48.20;;;;;;5032034;28;20936;-65
2021/11/06 04:01:53;;;;;;;86.72;23.15;;;23.10;48.30;;;;;;5033474;28;20129;-65
2021/11/06 04:04:19;;;;;;;99.68;22.13;;;23.10;48.40;;;;;;5051754;28;20156;-65
2021/11/06 04:06:46;;;;;;;67.63;19.80;;;23.10;48.40;;;;;;5051266;28;20164;-65
2021/11/06 04:09:12;;;;;;;61.78;18.30;;;23.00;49.00;;;;;;5032132;28;20097;-64
2021/11/06 04:11:39;;;;;;;78.85;20.52;;;23.00;49.60;;;;;;5051324;28;20674;-66
2021/11/06 04:14:05;;;;;;;66.20;19.95;;;23.00;49.30;;;;;;5032869;28;20526;-65
2021/11/06 04:16:32;;;;;;;76.75;20.05;;;22.50;72.60;;;;;;5016635;28;20474;-65
2021/11/06 04:18:58;;;;;;;77.22;20.67;;;23.00;69.70;;;;;;5033413;28;20038;-64
2021/11/06 04:21:25;;;;;;;79.65;19.35;;;;;;;;;;5031368;28;20463;-65
2021/11/06 04:23:51;;;;;;;85.28;20.65;;;;;;;;;;5032390;28;20517;-66
2021/11/06 04:26:18;;;;;;;100.30;21.13;;;;;;;;;;5014176;28;20422;-65
2021/11/06 04:28:44;;;;;;;64.68;19.42;;;22.90;93.40;;;;;;5032125;28;20368;-65
2021/11/06 04:31:11;;;;;;;84.35;21.02;;;;;;;;;;5032712;28;20028;-66
2021/11/06 04:33:37;;;;;;;71.38;22.67;;;;;;;;;;5032311;28;20037;-65
2021/11/06 04:36:06;;;;;;;113.28;23.23;;;;;;;;;;5030571;28;20044;-65
2021/11/06 04:38:33;;;;;;;71.78;22.48;;;;;;;;;;5031977;28;20029;-65
2021/11/06 04:40:59;;;;;;;86.97;26.58;;;22.50;50.10;;;;;;5031264;28;20044;-65
2021/11/06 04:43:26;;;;;;;95.55;26.13;;;;;;;;;;5031235;28;20086;-65
2021/11/06 04:45:52;;;;;;;95.93;27.42;;;22.90;88.30;;;;;;5031371;28;20067;-65
2021/11/06 04:48:19;;;;;;;83.78;29.73;;;;;;;;;;5031323;28;20045;-66
2021/11/06 04:50:45;;;;;;;116.53;34.88;;;21.70;79.70;;;;;;5049515;28;20024;-65
2021/11/06 04:53:12;;;;;;;111.28;37.47;;;;;;;;;;5029686;28;20041;-65
2021/11/06 04:55:38;;;;;;;123.88;38.65;;;22.40;50.50;;;;;;5049187;28;20028;-63
2021/11/06 04:58:05;;;;;;;120.43;40.22;;;22.70;82.10;;;;;;5031996;28;20045;-65
2021/11/06 05:00:32;;;;;;;125.35;43.55;;;22.50;50.80;;;;;;5032368;28;20138;-65
2021/11/06 05:02:58;;;;;;;137.52;41.30;;;22.50;90.20;;;;;;5032897;28;20132;-65
2021/11/06 05:05:24;;;;;;;149.90;42.85;;;23.70;54.10;;;;;;5032772;28;20064;-64
2021/11/06 05:07:51;;;;;;;138.30;41.90;;;22.10;84.50;;;;;;5050090;28;20121;-64
2021/11/06 05:10:18;;;;;;;161.90;41.13;;;;;;;;;;5031621;28;20060;-64
2021/11/06 05:12:48;;;;;;;154.00;40.22;;;22.20;84.10;;;;;;5031685;28;20368;-66
2021/11/06 05:15:15;;;;;;;131.15;38.70;;;22.10;87.80;;;;;;5031730;28;20110;-66
2021/11/06 05:17:42;;;;;;;135.48;37.60;;;;;;;;;;5031882;28;20021;-64
2021/11/06 05:20:08;;;;;;;151.43;36.50;;;;;;;;;;5029536;28;20028;-64
2021/11/06 05:22:35;;;;;;;136.30;35.13;;;;;;;;;;5044558;28;20028;-64
2021/11/06 05:25:04;;;;;;;164.07;35.97;;;21.80;71.60;;;;;;5032124;28;20092;-65
2021/11/06 05:27:32;;;;;;;123.38;34.60;;;22.20;55.80;;;;;;5031921;28;20100;-66
2021/11/06 05:29:59;;;;;;;121.15;34.30;;;;;;;;;;5048905;28;20024;-64
2021/11/06 05:32:26;;;;;;;125.90;34.63;;;;;;;;;;5022590;28;20372;-64
2021/11/06 05:34:52;;;;;;;125.80;35.05;;;22.20;69.10;;;;;;5022238;28;20623;-65
2021/11/06 05:37:19;;;;;;;116.07;30.80;;;;;;;;;;5031145;28;20021;-65
2021/11/06 05:39:45;;;;;;;137.90;32.65;;;;;;;;;;5031583;28;20029;-67
2021/11/06 05:42:12;;;;;;;149.43;31.95;;;22.20;68.60;;;;;;5042099;28;20043;-65
2021/11/06 05:44:39;;;;;;;133.13;30.85;;;22.20;77.10;;;;;;5049911;28;20097;-64
2021/11/06 05:47:05;;;;;;;150.98;33.17;;;;;;;;;;5031502;28;20028;-64
2021/11/06 05:49:32;;;;;;;157.20;34.25;;;;;;;;;;5049532;28;20565;-67
2021/11/06 05:51:58;;;;;;;135.15;32.25;;;21.90;78.10;;;;;;5031026;28;20025;-66
2021/11/06 05:54:25;;;;;;;122.13;30.52;;;;;;;;;;5049698;28;20131;-66
2021/11/06 05:56:51;;;;;;;146.30;32.28;;;21.90;78.60;;;;;;5031555;28;20372;-64
2021/11/06 05:59:18;;;;;;;125.05;29.58;;;22.00;49.40;;;;;;5031406;28;20077;-63
2021/11/06 06:01:44;;;;;;;124.35;30.92;;;21.90;50.10;;;;;;5032384;28;20093;-64
2021/11/06 06:04:12;;;;;;;140.18;30.60;;;21.90;50.10;;;;;;5031572;28;20097;-64
2021/11/06 06:06:39;;;;;;;133.65;31.13;;;21.80;50.10;;;;;;5015121;28;20128;-64
2021/11/06 06:09:06;;;;;;;140.45;29.23;;;21.80;49.80;;;;;;5031751;28;20065;-64
2021/11/06 06:11:33;;;;;;;123.90;30.92;;;21.70;80.60;;;;;;5031375;28;20503;-64
2021/11/06 06:14:00;;;;;;;107.10;28.30;;;21.80;83.10;;;;;;5030863;28;20033;-64
2021/11/06 06:16:27;;;;;;;141.75;31.02;;;21.80;50.10;;;;;;5027472;28;20121;-65
2021/11/06 06:18:54;;;;;;;133.20;31.55;;;21.80;49.90;;;;;;5028899;28;20178;-64
2021/11/06 06:21:20;;;;;;;137.43;30.27;;;21.80;49.70;;;;;;5028931;28;20160;-65
2021/11/06 06:23:48;;;;;;;123.38;33.10;;;21.70;50.60;;;;;;5044299;28;20157;-65
2021/11/06 06:26:15;;;;;;;148.68;33.72;;;21.70;50.80;;;;;;5027978;28;20102;-66
2021/11/06 06:28:41;;;;;;;146.93;33.95;;;21.30;51.30;;;;;;5027905;28;20452;-65
2021/11/06 06:31:08;;;;;;;125.20;33.78;;;21.20;58.60;;;;;;5029225;28;20030;-65
2021/11/06 06:33:35;;;;;;;124.78;31.73;;;21.50;51.40;;;;;;5016656;28;20503;-64
2021/11/06 06:36:01;;;;;;;120.03;30.48;;;;;;;;;;5010159;28;20033;-63
2021/11/06 06:38:28;;;;;;;127.57;30.17;;;21.70;57.00;;;;;;5027511;28;20091;-66
2021/11/06 06:40:54;;;;;;;138.05;30.08;;;;;;;;;;5027493;28;20135;-64
2021/11/06 06:43:21;;;;;;;130.98;30.30;;;21.40;52.10;;;;;;5027604;28;20086;-65
2021/11/06 06:45:47;;;;;;;136.02;29.45;;;21.20;67.50;;;;;;5027575;28;20060;-64
2021/11/06 06:48:14;;;;;;;120.22;28.67;;;;;;;;;;5021842;28;20100;-65
2021/11/06 06:50:45;;;;;;;133.77;29.13;;;;;;;;;;5027542;28;20508;-66
2021/11/06 06:53:16;;;;;;;131.73;29.92;;;21.40;65.10;;;;;;5028566;28;20031;-65
2021/11/06 06:55:44;;;;;;;104.60;28.30;;;21.30;53.10;;;;;;5027536;28;20093;-65
2021/11/06 06:58:10;;;;;;;155.82;30.98;;;;;;;;;;5028202;28;20072;-65
2021/11/06 07:00:37;;;;;;;148.55;32.38;;;;;;;;;;5011996;28;20022;-67
2021/11/06 07:03:03;;;;;;;154.57;32.72;;;21.40;55.50;;;;;;5029193;28;20057;-64
2021/11/06 07:05:30;;;;;;;136.40;31.92;;;21.20;53.30;;;;;;5029707;28;20059;-67
2021/11/06 07:07:57;;;;;;;171.80;37.92;;;21.60;58.00;;;;;;5031498;28;20053;-61
2021/11/06 07:10:25;;;;;;;174.50;34.70;;;21.80;55.70;;;;;;5031150;28;20502;-64
2021/11/06 07:12:53;;;;;;;139.52;34.45;;;21.40;59.00;;;;;;5030926;28;20056;-60
2021/11/06 07:15:19;;;;;;;147.60;35.38;;;21.30;87.10;;;;;;5030676;28;20188;-61
2021/11/06 07:17:45;;;;;;;178.93;35.92;;;21.40;52.10;;;;;;5029640;28;20022;-59
2021/11/06 07:20:14;;;;;;;153.23;35.80;;;21.50;53.10;;;;;;5014249;28;20575;-61
2021/11/06 07:22:40;;;;;;;158.15;38.17;;;21.60;53.70;;;;;;5031053;28;20098;-62
2021/11/06 07:25:07;;;;;;;179.10;36.70;;;21.60;52.40;;;;;;5029777;28;20431;-61
2021/11/06 07:27:34;;;;;;;167.07;35.28;;;21.60;52.50;;;;;;5030563;28;20070;-65
2021/11/06 07:30:01;;;;;;;138.55;34.97;;;21.80;52.60;;;;;;5030826;28;20231;-60
2021/11/06 07:32:27;;;;;;;154.48;36.38;;;21.80;51.60;;;;;;5031871;28;20281;-60
2021/11/06 07:34:54;;;;;;;175.38;37.42;;;21.70;51.20;;;;;;5014116;28;20578;-59
2021/11/06 07:37:20;;;;;;;159.15;37.85;;;21.80;52.10;;;;;;5012752;28;20094;-61
2021/11/06 07:39:47;;;;;;;195.73;38.08;;;21.80;52.20;;;;;;5012042;28;20078;-63
2021/11/06 07:42:13;;;;;;;178.20;37.30;;;21.80;51.60;;;;;;4996357;28;20086;-59
2021/11/06 07:44:39;;;;;;;152.27;36.47;;;21.70;52.30;;;;;;5012774;28;20176;-59
2021/11/06 07:47:06;;;;;;;158.85;37.97;;;21.60;52.90;;;;;;5029373;28;20127;-63
2021/11/06 07:49:33;;;;;;;164.40;39.25;;;21.60;52.60;;;;;;5031403;28;20070;-62
2021/11/06 07:51:59;;;;;;;180.48;39.60;;;21.50;52.40;;;;;;5029636;28;20156;-61
2021/11/06 07:54:27;;;;;;;167.27;39.70;;;21.60;53.50;;;;;;5031108;28;20532;-62
2021/11/06 07:56:54;;;;;;;170.93;38.85;;;21.70;53.30;;;;;;5031115;28;20105;-60
2021/11/06 07:59:21;;;;;;;185.63;40.83;;;21.60;53.50;;;;;;5029846;28;20073;-65
2021/11/06 08:01:48;;;;;;;170.88;39.92;;;21.60;53.20;;;;;;5031416;28;20101;-60
2021/11/06 08:04:14;;;;;;;183.30;39.35;;;21.50;53.10;;;;;;5030141;28;20532;-61
2021/11/06 08:06:42;;;;;;;159.35;40.55;;;21.30;53.00;;;;;;5013208;28;20547;-63
2021/11/06 08:09:09;;;;;;;180.18;39.90;;;21.40;53.80;;;;;;5030025;28;20078;-60
2021/11/06 08:11:35;;;;;;;161.57;40.00;;;21.30;53.30;;;;;;5029811;28;20081;-62
2021/11/06 08:14:01;;;;;;;164.82;38.60;;;21.30;53.80;;;;;;5013633;28;20969;-62
2021/11/06 08:16:28;;;;;;;190.57;38.45;;;21.20;53.60;;;;;;5029439;28;20231;-65
2021/11/06 08:18:55;;;;;;;182.77;38.92;;;21.20;53.90;;;;;;5030843;28;20152;-62
2021/11/06 08:21:21;;;;;;;164.88;41.28;;;21.20;54.20;;;;;;5027059;28;20455;-62
2021/11/06 08:23:48;;;;;;;175.05;42.95;;;21.30;54.50;;;;;;5027593;28;20165;-66
2021/11/06 08:26:14;;;;;;;180.77;41.75;;;21.20;53.40;;;;;;5008893;28;20078;-64
2021/11/06 08:28:40;;;;;;;163.50;41.15;;;21.10;54.30;;;;;;5027557;28;20069;-62
2021/11/06 08:31:07;;;;;;;163.10;40.47;;;21.10;53.40;;;;;;5023262;28;20075;-63
2021/11/06 08:33:33;;;;;;;171.80;39.97;;;21.10;54.00;;;;;;5021824;28;20081;-63
2021/11/06 08:36:01;;;;;;;174.63;41.50;;;21.00;53.70;;;;;;5009380;28;20082;-61
2021/11/06 08:38:28;;;;;;;165.20;41.70;;;21.00;53.70;;;;;;5026266;28;20097;-63
2021/11/06 08:40:55;;;;;;;154.88;40.95;;;21.10;53.30;;;;;;5026555;28;20081;-65
2021/11/06 08:43:23;;;;;;;170.05;39.90;;;21.10;53.90;;;;;;5010011;28;20114;-65
2021/11/06 08:45:50;;;;;;;179.45;42.15;;;21.00;53.80;;;;;;5011211;28;20128;-61
2021/11/06 08:48:17;;;;;;;176.65;43.47;;;20.90;53.90;;;;;;4995733;28;20084;-60
2021/11/06 08:50:44;;;;;;;160.57;40.00;;;20.90;53.40;;;;;;5025212;28;20101;-63
2021/11/06 08:53:10;;;;;;;157.23;39.92;;;20.80;53.50;;;;;;5008802;28;20104;-61
2021/11/06 08:55:37;;;;;;;174.77;40.10;;;21.00;54.10;;;;;;5025814;28;20074;-62
2021/11/06 08:58:03;;;;;;;159.02;40.22;;;20.90;52.70;;;;;;5007808;28;20091;-62
2021/11/06 09:00:35;;;;;;;150.45;39.60;;;20.80;52.80;;;;;;5026701;28;20437;-60
2021/11/06 09:03:09;;;;;;;171.05;39.90;;;20.60;53.50;;;;;;5027034;28;20082;-62
2021/11/06 09:05:37;;;;;;;144.18;37.33;;;20.70;52.70;;;;;;5027489;28;20094;-60
2021/11/06 09:08:04;;;;;;;136.02;35.92;;;20.80;53.10;;;;;;5025055;28;20150;-62
2021/11/06 09:10:31;;;;;;;150.18;38.13;;;20.80;52.60;;;;;;5026333;28;20084;-59
2021/11/06 09:12:58;;;;;;;157.57;38.60;;;20.70;52.90;;;;;;5026059;28;20098;-64
2021/11/06 09:15:25;;;;;;;153.93;40.65;;;20.70;53.10;;;;;;5010281;28;20106;-64
2021/11/06 09:17:52;;;;;;;159.63;39.08;;;20.70;54.10;;;;;;5025977;28;20108;-64
2021/11/06 09:20:19;;;;;;;150.07;38.92;;;20.80;53.40;;;;;;5026864;28;20074;-62
2021/11/06 09:22:48;;;;;;;146.18;40.33;;;20.80;52.70;;;;;;5025943;28;20552;-61
2021/11/06 09:25:15;;;;;;;148.85;37.65;;;20.70;52.90;;;;;;5025533;28;20088;-60
2021/11/06 09:27:42;;;;;;;141.50;37.45;;;20.60;52.80;;;;;;5016536;28;20082;-64
2021/11/06 09:30:10;;;;;;;141.48;36.33;;;20.60;53.90;;;;;;5026258;28;20193;-62
2021/11/06 09:32:38;;;;;;;146.50;38.83;;;20.60;53.60;;;;;;5026736;28;20070;-59
2021/11/06 09:35:05;;;;;;;121.60;36.60;;;20.60;54.00;;;;;;5026153;28;20536;-64
2021/11/06 09:37:31;;;;;;;129.20;34.97;;;20.60;54.10;;;;;;5025448;28;20092;-61
2021/11/06 09:39:58;;;;;;;129.00;35.20;;;20.40;54.20;;;;;;5025545;28;20447;-64
2021/11/06 09:42:24;;;;;;;137.65;36.72;;;20.40;54.50;;;;;;5027367;28;20118;-64
2021/11/06 09:44:52;;;;;;;140.93;35.20;;;20.20;53.90;;;;;;5028155;28;20097;-64
2021/11/06 09:47:21;;;;;;;122.97;32.72;;;20.20;54.80;;;;;;5028593;28;20804;-62
2021/11/06 09:49:48;;;;;;;147.70;37.03;;;20.20;54.80;;;;;;5011644;28;20090;-66
2021/11/06 09:52:15;;;;;;;127.82;35.92;;;20.20;54.80;;;;;;5027615;28;20523;-62
2021/11/06 09:54:43;;;;;;;128.63;36.50;;;20.20;55.40;;;;;;5028051;28;20543;-66
2021/11/06 09:57:09;;;;;;;137.50;36.00;;;20.20;55.60;;;;;;5027128;28;20070;-62
2021/11/06 09:59:36;;;;;;;150.32;39.72;;;20.10;55.40;;;;;;5028358;28;20078;-60
2021/11/06 10:02:04;;;;;;;151.07;37.90;;;19.90;55.60;;;;;;5028654;28;20086;-63
2021/11/06 10:04:31;;;;;;;133.23;37.38;;;19.80;56.20;;;;;;5028267;28;20528;-61
2021/11/06 10:07:19;;;;;;;145.52;38.60;;;19.80;57.00;;;;;;5010566;28;20077;-60
2021/11/06 10:10:06;;;;;;;137.57;36.08;;;19.90;56.90;;;;;;5028321;28;20070;-61
2021/11/06 10:12:46;;;;;;;131.98;36.65;;;19.90;56.70;;;;;;5028157;28;20084;-63
2021/11/06 10:15:15;;;;;;;118.50;35.95;;;19.90;57.00;;;;;;5029876;28;20081;-63
2021/11/06 10:17:42;;;;;;;156.35;36.03;;;19.80;56.90;;;;;;5031286;28;20089;-61
2021/11/06 10:20:39;;;;;;;125.80;36.13;;;19.70;56.60;;;;;;5030761;28;20172;-66
2021/11/06 10:23:07;;;;;;;133.65;34.38;;;19.60;56.90;;;;;;4982364;28;20122;-62
2021/11/06 10:25:34;;;;;;;139.70;35.90;;;19.60;56.70;;;;;;4954905;28;20174;-60
2021/11/06 10:28:12;;;;;;;125.20;36.70;;;19.50;57.10;;;;;;4970428;28;20106;-62
2021/11/06 10:30:44;;;;;;;130.13;36.53;;;19.60;57.50;;;;;;4939690;28;20129;-64
2021/11/06 10:33:14;;;;;;;125.82;37.45;;;19.60;57.90;;;;;;4985492;28;20106;-66
2021/11/06 10:35:42;;;;;;;116.35;35.38;;;19.60;57.50;;;;;;4987760;28;20078;-63
2021/11/06 10:38:14;;;;;;;129.98;36.53;;;19.60;57.40;;;;;;4970755;28;20153;-64
2021/11/06 10:40:52;;;;;;;132.18;35.05;;;19.40;57.80;;;;;;4990193;28;20555;-65
2021/11/06 10:43:20;;;;;;;130.73;34.75;;;19.40;57.70;;;;;;4990747;28;20109;-65
2021/11/06 10:45:53;;;;;;;119.80;33.42;;;19.30;57.80;;;;;;4942148;28;20080;-64
2021/11/06 10:48:21;;;;;;;113.85;33.08;;;19.20;58.30;;;;;;4972898;28;20098;-64
2021/11/06 10:51:04;;;;;;;110.97;31.35;;;19.10;58.60;;;;;;4946822;28;20091;-61
2021/11/06 10:53:52;;;;;;;133.52;33.58;;;19.10;59.90;;;;;;4971944;28;20083;-66
2021/11/06 10:56:22;;;;;;;106.45;29.83;;;19.10;61.10;;;;;;4977978;28;20441;-61
2021/11/06 10:58:53;;;;;;;96.75;30.30;;;19.10;62.90;;;;;;4988702;28;20609;-65
2021/11/06 11:01:22;;;;;;;93.85;28.00;;;19.10;62.70;;;;;;5034366;28;20168;-62
2021/11/06 11:03:50;;;;;;;87.72;29.23;;;19.10;63.50;;;;;;5035192;28;20076;-61
2021/11/06 11:06:27;;;;;;;93.80;28.63;;;19.10;64.10;;;;;;5034176;28;20073;-61
2021/11/06 11:08:56;;;;;;;93.45;27.45;;;19.00;64.40;;;;;;5033494;28;20108;-66
2021/11/06 11:11:25;;;;;;;94.82;29.55;;;19.10;64.90;;;;;;5034499;28;20108;-61
2021/11/06 11:14:15;;;;;;;100.53;28.08;;;19.10;65.60;;;;;;5033469;28;20596;-65
2021/11/06 11:16:53;;;;;;;96.78;28.58;;;19.20;65.80;;;;;;5052175;28;20255;-62
2021/11/06 11:19:40;;;;;;;99.97;28.83;;;19.30;66.00;;;;;;5034434;28;20073;-60
2021/11/06 11:22:21;;;;;;;84.82;29.48;;;19.10;65.40;;;;;;5037405;28;20093;-62
2021/11/06 11:24:49;;;;;;;81.93;28.73;;;19.70;66.80;;;;;;5034016;28;20077;-64
2021/11/06 11:27:16;;;;;;;92.00;29.55;;;19.10;93.10;;;;;;5052211;28;20040;-64
2021/11/06 11:29:44;;;;;;;99.47;27.95;;;19.40;66.10;;;;;;5017617;28;20475;-63
2021/11/06 11:32:13;;;;;;;101.30;29.60;;;18.90;99.90;;;;;;5034488;28;20081;-66
2021/11/06 11:34:47;;;;;;;100.25;29.95;;;18.90;86.30;;;;;;5035087;28;20486;-63
2021/11/06 11:37:14;;;;;;;97.55;29.17;;;18.90;67.00;;;;;;5050631;28;20078;-62
2021/11/06 11:39:43;;;;;;;94.40;29.10;;;18.50;69.90;;;;;;5017333;28;20124;-63
2021/11/06 11:42:40;;;;;;;82.38;26.05;;;19.00;78.20;;;;;;5018090;28;20036;-63
2021/11/06 11:45:34;;;;;;;79.65;24.45;;;18.60;72.60;;;;;;5051441;28;20072;-61
2021/11/06 11:48:03;;;;;;;73.30;22.05;;;18.70;72.80;;;;;;5033163;28;20451;-61
2021/11/06 11:50:35;;;;;;;64.95;21.73;;;18.30;80.80;;;;;;5033437;28;20112;-63
2021/11/06 11:53:04;;;;;;;58.13;18.73;;;18.80;94.10;;;;;;5033786;28;20552;-63
2021/11/06 11:55:42;;;;;;;54.80;20.02;;;18.80;77.40;;;;;;5032840;28;20040;-61
2021/11/06 11:58:12;;;;;;;64.15;18.95;;;18.50;94.70;;;;;;5032973;28;20110;-62
2021/11/06 12:00:54;;;;;;;56.00;17.73;;;18.90;99.90;;;;;;5001337;28;20051;-66
2021/11/06 12:03:28;;;;;;;54.90;17.20;;;;;;;;;;5050749;28;20527;-63
2021/11/06 12:05:55;;;;;;;51.85;16.27;;;18.90;99.90;;;;;;5032449;28;20045;-61
2021/11/06 12:08:21;;;;;;;51.75;15.88;;;18.80;92.60;;;;;;5032857;28;20033;-60
2021/11/06 12:10:48;;;;;;;;;;;;;;;;;;5034010;28;20017;-62
2021/11/06 12:13:32;;;;;;;41.45;14.05;;;18.90;89.80;;;;;;5033311;28;20353;-62
2021/11/06 12:16:25;;;;;;;52.08;14.30;;;;;;;;;;5032986;28;20399;-64
2021/11/06 12:18:55;;;;;;;48.08;14.00;;;;;;;;;;5048934;28;20059;-65
2021/11/06 12:21:22;;;;;;;35.42;14.10;;;19.10;99.90;;;;;;5032570;28;20540;-62
2021/11/06 12:23:54;;;;;;;38.80;13.55;;;;;;;;;;5049877;28;20033;-61
2021/11/06 12:26:27;;;;;;;46.85;14.70;;;18.90;99.70;;;;;;5032953;28;20036;-61
2021/11/06 12:29:14;;;;;;;32.47;11.82;;;18.70;99.90;;;;;;5032292;28;20441;-62
2021/11/06 12:31:43;;;;;;;37.17;12.00;;;18.70;99.50;;;;;;5038653;28;20048;-62
2021/11/06 12:34:29;;;;;;;33.60;10.90;;;18.60;99.90;;;;;;5016484;28;20041;-61
2021/11/06 12:36:56;;;;;;;36.20;11.02;;;;;;;;;;5032034;28;20032;-64
2021/11/06 12:40:21;;;;;;;25.80;10.10;;;18.60;99.90;;;;;;5032318;28;20025;-61
2021/11/06 12:43:05;;;;;;;32.95;11.18;;;;;;;;;;4985561;28;20035;-62